Worland, WY

12:50 AM MST on November 26, 2014 (GMT -0700)
Worland Municipal | Change Station
CLOSE
Current Station
Airport
Location: Worland,
Elevation: 4226 ft
Nearby Weather Stations
Active Advisory: Winter Weather Advisory Active Notice: Public Information Statement

Elev 4226 ft 43.97 °N, 107.95 °W | Updated 11 minutes ago

Snow
Snow
27 °F
Feels Like 23 °F
N
4
Wind Variable Wind from SW

Today
High -- | Low -- °F
--% Chance of Precip.
Yesterday
High -- | Low -- °F
Precip. -- in
7:20 AM 4:37 PM
Waxing Crescent, 17% visible
Pressure 30.18 in
Visibility 4.0 miles
Clouds Overcast 1800 ft
Windchill 23 °F
Dew Point 25 °F
Humidity 92%
Rainfall 0.00 in
Snow Depth Not available.
UV 0 out of 12
Pollen .10 out of 12
Air Quality Not available.
Flu Activity Not available.
SPECI KWRL 260739Z AUTO 22003KT 4SM -SN BR OVC018 M03/M04 A3018 RMK AO2 P0001 T10281039

More Conditions Fewer Conditions

Pressure 30.18 in
Visibility 4.0 miles
Clouds Overcast 1800 ft
Windchill 23 °F
Dew Point 25 °F
Humidity 92%
Rainfall 0.00 in
Snow Depth Not available.
UV 0 out of 12
Pollen .10 out of 12
Air Quality Not available.
Flu Activity Not available.
SPECI KWRL 260739Z AUTO 22003KT 4SM -SN BR OVC018 M03/M04 A3018 RMK AO2 P0001 T10281039

More Conditions Fewer Conditions

10-Day Weather Forecast

Almanac

Astronomy

Nov. 26, 2014 Rise Set
Actual Time
Civil Twilight
Nautical Twilight
Astronomical Twilight
Moon
Length of Visible Light
Length of Day
Tomorrow will be .
, % of the Moon is Illuminated

Today's Extremes

State Highs State Lows

Community

WunderPhotos

Upload Photos

1,773,694 photos uploaded!

WunderBlogs® & News

Nearby

Air Quality

  Air Quality AQ Index Pollutant
Not available.

Snow Depth

Station Depth Elevation

Earthquake Activity

City Distance Mag. Time & Date
Minimum magnitude displayed is 2.5.

Coastal Water Temperatures

Place Temperature

Nearby Weather Stations